createdAt,value
2023-04-09T00:01:51.357Z,10.01
2023-04-09T00:04:23.937Z,10.02
2023-04-09T00:06:54.997Z,10.02
2023-04-09T00:09:26.043Z,10.00
2023-04-09T00:11:58.803Z,10.00
2023-04-09T00:14:30.000Z,10.01
2023-04-09T00:17:01.213Z,10.01
2023-04-09T00:19:33.406Z,10.01
2023-04-09T00:22:04.959Z,10.02
2023-04-09T00:24:35.904Z,10.02
2023-04-09T00:27:06.984Z,10.02
2023-04-09T00:29:38.003Z,10.03
2023-04-09T00:32:09.733Z,10.04
2023-04-09T00:34:40.963Z,10.05
2023-04-09T00:37:12.038Z,10.03
2023-04-09T00:39:43.220Z,10.02
2023-04-09T00:42:14.287Z,10.00
2023-04-09T00:44:45.280Z,9.99
2023-04-09T00:47:16.372Z,9.97
2023-04-09T00:49:47.499Z,9.95
2023-04-09T00:52:18.538Z,9.91
2023-04-09T00:54:50.083Z,9.88
2023-04-09T00:57:21.836Z,9.85
2023-04-09T00:59:53.465Z,9.83
2023-04-09T01:02:24.721Z,9.81
2023-04-09T01:04:55.912Z,9.80
2023-04-09T01:07:38.283Z,9.80
2023-04-09T01:10:18.441Z,9.79
2023-04-09T01:13:05.893Z,9.78
2023-04-09T01:15:42.377Z,9.77
2023-04-09T01:18:20.567Z,9.77
2023-04-09T01:20:58.714Z,9.78
2023-04-09T01:23:38.732Z,9.78
2023-04-09T01:26:22.758Z,9.78
2023-04-09T01:28:59.491Z,9.78
2023-04-09T01:31:33.143Z,9.78
2023-04-09T01:34:06.378Z,9.78
2023-04-09T01:36:41.208Z,9.78
2023-04-09T01:39:12.713Z,9.77
2023-04-09T01:41:44.422Z,9.76
2023-04-09T01:44:16.302Z,9.77
2023-04-09T01:46:50.392Z,9.77
2023-04-09T01:49:21.962Z,9.77
2023-04-09T01:51:53.197Z,9.76
2023-04-09T01:54:24.214Z,9.75
2023-04-09T01:56:55.234Z,9.73
2023-04-09T01:59:26.215Z,9.71
2023-04-09T02:02:01.329Z,9.70
2023-04-09T02:04:33.836Z,9.68
2023-04-09T02:07:11.428Z,9.66
2023-04-09T02:09:44.481Z,9.64
2023-04-09T02:15:52.180Z,9.63
2023-04-09T02:18:28.708Z,9.63
2023-04-09T02:21:00.848Z,9.64
2023-04-09T02:23:33.706Z,9.64
2023-04-09T02:26:04.714Z,9.63
2023-04-09T02:28:35.877Z,9.62
2023-04-09T02:31:07.335Z,9.62
2023-04-09T02:33:38.341Z,9.63
2023-04-09T02:36:16.429Z,9.62
2023-04-09T02:39:01.371Z,9.63
2023-04-09T02:41:32.624Z,9.63
2023-04-09T02:44:06.922Z,9.63
2023-04-09T02:46:39.447Z,9.63
2023-04-09T02:52:07.440Z,9.62
2023-04-09T02:54:38.819Z,9.63
2023-04-09T03:01:21.558Z,9.65
2023-04-09T03:03:53.030Z,9.64
2023-04-09T03:06:26.762Z,9.64
2023-04-09T03:08:57.736Z,9.64
2023-04-09T03:11:28.788Z,9.63
2023-04-09T03:13:59.818Z,9.63
2023-04-09T03:16:31.432Z,9.62
2023-04-09T03:19:11.455Z,9.62
2023-04-09T03:21:42.523Z,9.61
2023-04-09T03:24:13.812Z,9.60
2023-04-09T03:26:45.217Z,9.57
2023-04-09T03:29:16.407Z,9.56
2023-04-09T03:31:47.652Z,9.54
2023-04-09T03:34:19.346Z,9.52
2023-04-09T03:36:53.543Z,9.49
2023-04-09T03:39:31.510Z,9.47
2023-04-09T03:42:02.523Z,9.43
2023-04-09T03:44:37.305Z,9.39
2023-04-09T03:47:14.139Z,9.36
2023-04-09T03:49:45.136Z,9.33
2023-04-09T03:52:25.691Z,9.29
2023-04-09T03:55:04.070Z,9.25
2023-04-09T03:57:35.701Z,9.23
2023-04-09T04:00:09.624Z,9.20
2023-04-09T04:02:54.650Z,9.19
2023-04-09T04:05:45.041Z,9.18
2023-04-09T04:08:20.376Z,9.17
2023-04-09T04:10:51.751Z,9.17
2023-04-09T04:13:22.981Z,9.16
2023-04-09T04:15:59.417Z,9.15
2023-04-09T04:18:32.853Z,9.14
2023-04-09T04:21:03.836Z,9.13
2023-04-09T04:23:36.783Z,9.12
2023-04-09T04:26:19.569Z,9.13
2023-04-09T04:28:51.288Z,9.14
2023-04-09T04:31:32.537Z,9.16
2023-04-09T04:34:03.767Z,9.18
2023-04-09T04:36:34.725Z,9.19
2023-04-09T04:39:05.701Z,9.20
2023-04-09T04:41:45.928Z,9.22
2023-04-09T04:44:20.110Z,9.24
2023-04-09T04:46:51.612Z,9.25
2023-04-09T04:49:22.642Z,9.29
2023-04-09T04:51:53.620Z,9.31
2023-04-09T04:54:24.695Z,9.32
2023-04-09T04:56:58.643Z,9.32
2023-04-09T04:59:41.724Z,9.29
2023-04-09T05:02:14.702Z,9.29
2023-04-09T05:04:53.848Z,9.29
2023-04-09T05:07:28.065Z,9.30
2023-04-09T05:10:01.901Z,9.34
2023-04-09T05:12:36.863Z,9.36
2023-04-09T05:15:09.873Z,9.39
2023-04-09T05:17:45.663Z,9.45
2023-04-09T05:20:15.911Z,9.51
2023-04-09T05:22:55.013Z,9.58
2023-04-09T05:25:31.667Z,9.68
2023-04-09T05:28:03.112Z,9.80
2023-04-09T05:30:34.824Z,10.00
2023-04-09T05:33:06.984Z,10.35
2023-04-09T05:35:41.410Z,10.79
2023-04-09T05:38:13.939Z,11.28
2023-04-09T05:40:46.151Z,11.92
2023-04-09T05:43:17.315Z,12.22
2023-04-09T05:45:48.347Z,12.46
2023-04-09T05:48:19.886Z,12.68
2023-04-09T05:50:55.481Z,12.85
2023-04-09T05:53:28.268Z,13.12
2023-04-09T05:55:59.198Z,13.27
2023-04-09T05:58:32.677Z,13.34
2023-04-09T06:01:03.718Z,13.37
2023-04-09T06:03:34.792Z,13.35
2023-04-09T06:06:06.295Z,13.33
2023-04-09T06:08:38.506Z,13.33
2023-04-09T06:11:13.417Z,13.34
2023-04-09T06:13:44.380Z,13.35
2023-04-09T06:16:16.228Z,13.37
2023-04-09T06:18:49.794Z,13.39
2023-04-09T06:21:20.825Z,13.40
2023-04-09T06:23:53.969Z,13.40
2023-04-09T06:26:27.796Z,13.43
2023-04-09T06:28:58.843Z,13.47
2023-04-09T06:31:31.874Z,13.55
2023-04-09T06:34:03.048Z,13.61
2023-04-09T06:36:40.515Z,13.65
2023-04-09T06:39:11.532Z,13.71
2023-04-09T06:41:42.587Z,13.77
2023-04-09T06:44:26.966Z,13.79
2023-04-09T06:46:58.173Z,13.81
2023-04-09T06:49:29.199Z,13.87
2023-04-09T06:52:00.574Z,13.94
2023-04-09T06:54:31.714Z,14.00
2023-04-09T06:57:02.790Z,14.08
2023-04-09T06:59:34.003Z,14.16
2023-04-09T07:02:05.131Z,14.24
2023-04-09T07:04:36.311Z,14.29
2023-04-09T07:07:07.454Z,14.31
2023-04-09T07:09:38.486Z,14.34
2023-04-09T07:12:09.490Z,14.39
2023-04-09T07:14:40.483Z,14.52
2023-04-09T07:17:11.400Z,14.66
2023-04-09T07:19:42.472Z,14.83
2023-04-09T07:22:13.457Z,14.94
2023-04-09T07:24:44.633Z,15.07
2023-04-09T07:27:15.700Z,15.16
2023-04-09T07:29:48.391Z,15.21
2023-04-09T07:32:19.654Z,15.24
2023-04-09T07:34:52.213Z,15.28
2023-04-09T07:37:23.552Z,15.29
2023-04-09T07:39:54.921Z,15.32
2023-04-09T07:42:27.424Z,15.35
2023-04-09T07:44:58.689Z,15.42
2023-04-09T07:47:30.147Z,15.45
2023-04-09T07:50:01.468Z,15.43
2023-04-09T07:52:32.510Z,15.38
2023-04-09T07:55:03.618Z,15.41
2023-04-09T07:57:35.393Z,15.48
2023-04-09T08:00:08.434Z,15.60
2023-04-09T08:02:48.804Z,15.73
2023-04-09T08:05:20.308Z,15.76
2023-04-09T08:07:52.082Z,15.77
2023-04-09T08:10:23.325Z,15.74
2023-04-09T08:12:54.626Z,15.72
2023-04-09T08:15:25.716Z,15.74
2023-04-09T08:17:57.070Z,15.72
2023-04-09T08:20:29.546Z,15.69
2023-04-09T08:23:00.680Z,15.73
2023-04-09T08:25:31.618Z,15.78
2023-04-09T08:28:02.693Z,15.81
2023-04-09T08:30:34.526Z,15.90
2023-04-09T08:33:06.361Z,15.98
2023-04-09T08:35:38.464Z,16.05
2023-04-09T08:38:09.439Z,16.10
2023-04-09T08:40:40.487Z,16.14
2023-04-09T08:43:15.861Z,16.12
2023-04-09T08:45:47.643Z,16.08
2023-04-09T08:48:21.448Z,16.01
2023-04-09T08:50:52.868Z,15.94
2023-04-09T08:53:24.263Z,15.87
2023-04-09T08:55:55.350Z,15.78
2023-04-09T08:58:26.304Z,15.74
2023-04-09T09:00:57.329Z,15.70
2023-04-09T09:03:28.659Z,15.65
2023-04-09T09:05:59.777Z,15.61
2023-04-09T09:08:30.819Z,15.57
2023-04-09T09:11:02.237Z,15.55
2023-04-09T09:13:33.219Z,15.53
2023-04-09T09:16:18.172Z,15.48
2023-04-09T09:18:58.824Z,15.40
2023-04-09T09:21:31.848Z,15.38
2023-04-09T09:24:04.801Z,15.37
2023-04-09T09:26:41.417Z,15.41
2023-04-09T09:29:15.750Z,15.50
2023-04-09T09:31:53.710Z,15.60
2023-04-09T09:34:27.876Z,15.70
2023-04-09T09:37:01.833Z,15.73
2023-04-09T09:39:45.716Z,15.73
2023-04-09T09:42:16.719Z,15.72
2023-04-09T09:44:50.067Z,15.72
2023-04-09T09:47:22.223Z,15.81
2023-04-09T09:49:57.012Z,15.92
2023-04-09T09:52:28.725Z,16.04
2023-04-09T09:55:04.406Z,16.19
2023-04-09T09:57:40.709Z,16.42
2023-04-09T10:00:16.887Z,16.66
2023-04-09T10:03:01.717Z,16.90
2023-04-09T10:05:37.010Z,17.07
2023-04-09T10:08:08.780Z,17.12
2023-04-09T10:10:43.281Z,17.17
2023-04-09T10:13:21.797Z,17.21
2023-04-09T10:15:53.357Z,17.19
2023-04-09T10:18:24.658Z,17.11
2023-04-09T10:20:59.604Z,17.10
2023-04-09T10:23:39.062Z,17.12
2023-04-09T10:26:10.593Z,17.12
2023-04-09T10:28:41.829Z,17.17
2023-04-09T10:31:12.995Z,17.19
2023-04-09T10:33:47.875Z,17.17
2023-04-09T10:36:22.515Z,17.13
2023-04-09T10:38:53.969Z,17.10
2023-04-09T10:41:29.237Z,17.10
2023-04-09T10:43:58.697Z,17.11
2023-04-09T10:46:31.527Z,17.15
2023-04-09T10:49:13.773Z,17.19
2023-04-09T10:51:49.461Z,17.20
2023-04-09T10:54:46.066Z,17.23
2023-04-09T10:57:20.132Z,17.20
2023-04-09T10:59:53.079Z,17.14
2023-04-09T11:03:08.129Z,17.09
2023-04-09T11:05:41.088Z,17.05
2023-04-09T11:08:13.318Z,17.02
2023-04-09T11:10:46.313Z,16.99
2023-04-09T11:13:20.082Z,16.99
2023-04-09T11:15:51.440Z,17.01
2023-04-09T11:18:26.394Z,17.03
2023-04-09T11:21:01.190Z,17.04
2023-04-09T11:23:33.128Z,17.06
2023-04-09T11:26:04.296Z,17.07
2023-04-09T11:28:37.455Z,17.11
2023-04-09T11:31:09.300Z,17.19
2023-04-09T11:33:40.311Z,17.26
2023-04-09T11:36:11.772Z,17.33
2023-04-09T11:38:42.911Z,17.40
2023-04-09T11:41:14.330Z,17.43
2023-04-09T11:43:45.555Z,17.49
2023-04-09T11:46:16.728Z,17.55
2023-04-09T11:48:48.420Z,17.57
2023-04-09T11:51:19.746Z,17.55
2023-04-09T11:53:51.404Z,17.51
2023-04-09T11:56:22.824Z,17.52
2023-04-09T11:58:56.017Z,17.58
2023-04-09T12:01:31.886Z,17.65
2023-04-09T12:04:03.859Z,17.73
2023-04-09T12:06:41.877Z,17.82
2023-04-09T12:09:14.333Z,17.88
2023-04-09T12:11:48.268Z,17.89
2023-04-09T12:14:22.694Z,17.92
2023-04-09T12:19:42.757Z,18.04
2023-04-09T12:22:13.699Z,18.12
2023-04-09T12:24:44.654Z,18.17
2023-04-09T12:27:33.844Z,18.18
2023-04-09T12:30:06.072Z,18.20
2023-04-09T12:32:37.107Z,18.25
2023-04-09T12:35:09.130Z,18.30
2023-04-09T12:37:40.173Z,18.33
2023-04-09T12:40:13.965Z,18.34
2023-04-09T12:42:45.650Z,18.39
2023-04-09T12:45:18.280Z,18.47
2023-04-09T12:47:49.445Z,18.52
2023-04-09T12:50:21.685Z,18.58
2023-04-09T12:52:52.684Z,18.66
2023-04-09T12:55:24.159Z,18.76
2023-04-09T12:57:55.069Z,18.85
2023-04-09T13:00:26.136Z,18.90
2023-04-09T13:02:57.153Z,18.84
2023-04-09T13:05:28.901Z,18.75
2023-04-09T13:08:00.222Z,18.67
2023-04-09T13:10:31.849Z,18.52
2023-04-09T13:13:03.121Z,18.31
2023-04-09T13:15:34.162Z,18.10
2023-04-09T13:18:05.574Z,17.88
2023-04-09T13:20:36.702Z,17.63
2023-04-09T13:23:07.657Z,17.35
2023-04-09T13:25:38.596Z,17.01
2023-04-09T13:28:10.096Z,16.64
2023-04-09T13:30:41.084Z,16.27
2023-04-09T13:33:12.145Z,15.97
2023-04-09T13:35:43.154Z,15.71
2023-04-09T13:38:14.102Z,15.45
2023-04-09T13:40:45.301Z,15.21
2023-04-09T13:43:16.301Z,14.99
2023-04-09T13:45:47.321Z,14.77
2023-04-09T13:48:18.421Z,14.60
2023-04-09T13:50:49.702Z,14.51
2023-04-09T13:53:22.070Z,14.44
2023-04-09T13:55:53.041Z,14.39
2023-04-09T13:58:24.106Z,14.33
2023-04-09T14:00:55.579Z,14.26
2023-04-09T14:03:26.648Z,14.17
2023-04-09T14:05:57.786Z,14.10
2023-04-09T14:08:28.996Z,14.01
2023-04-09T14:11:00.388Z,13.96
2023-04-09T14:13:32.046Z,13.92
2023-04-09T14:16:03.127Z,13.84
2023-04-09T14:18:34.073Z,13.80
2023-04-09T14:21:05.726Z,13.78
2023-04-09T14:23:37.295Z,13.73
2023-04-09T14:26:09.053Z,13.67
2023-04-09T14:28:40.073Z,13.63
2023-04-09T14:31:24.509Z,13.60
2023-04-09T14:33:55.599Z,13.61
2023-04-09T14:36:28.008Z,13.63
2023-04-09T14:39:00.291Z,13.65
2023-04-09T14:41:34.399Z,13.67
2023-04-09T14:44:35.505Z,13.70
2023-04-09T14:47:06.778Z,13.70
2023-04-09T14:49:39.576Z,13.70
2023-04-09T14:52:11.114Z,13.70
2023-04-09T14:54:44.736Z,13.70
2023-04-09T14:57:15.821Z,13.70
2023-04-09T14:59:47.742Z,13.68
2023-04-09T15:02:53.595Z,13.66
2023-04-09T15:05:25.769Z,13.65
2023-04-09T15:07:57.444Z,13.64
2023-04-09T15:10:28.416Z,13.63
2023-04-09T15:12:59.343Z,13.61
2023-04-09T15:15:30.752Z,13.58
2023-04-09T15:18:05.998Z,13.56
2023-04-09T15:20:40.574Z,13.54
2023-04-09T15:23:12.230Z,13.53
2023-04-09T15:25:43.167Z,13.51
2023-04-09T15:28:14.599Z,13.50
2023-04-09T15:30:57.333Z,13.50
2023-04-09T15:33:28.418Z,13.49
2023-04-09T15:35:59.792Z,13.50
2023-04-09T15:38:30.978Z,13.50
2023-04-09T15:41:01.960Z,13.48
2023-04-09T15:43:33.002Z,13.48
2023-04-09T15:46:10.784Z,13.47
2023-04-09T15:48:41.861Z,13.48
2023-04-09T15:51:13.815Z,13.52
2023-04-09T15:53:44.812Z,13.57
2023-04-09T15:56:16.409Z,13.63
2023-04-09T15:58:47.548Z,13.69
2023-04-09T16:01:19.186Z,13.73
2023-04-09T16:03:52.492Z,13.79
2023-04-09T16:06:23.578Z,13.84
2023-04-09T16:08:54.893Z,13.88
2023-04-09T16:11:26.375Z,13.91
2023-04-09T16:13:59.165Z,13.95
2023-04-09T16:16:31.447Z,13.97
2023-04-09T16:19:03.082Z,14.00
2023-04-09T16:21:36.105Z,14.02
2023-04-09T16:24:07.530Z,14.04
2023-04-09T16:26:45.829Z,14.04
2023-04-09T16:29:17.948Z,14.04
2023-04-09T16:31:49.020Z,14.03
2023-04-09T16:34:22.930Z,14.02
2023-04-09T16:36:58.257Z,14.00
2023-04-09T16:39:33.472Z,13.98
2023-04-09T16:42:03.143Z,13.96
2023-04-09T16:44:37.552Z,13.92
2023-04-09T16:47:11.176Z,13.88
2023-04-09T16:49:42.487Z,13.84
2023-04-09T16:52:13.784Z,13.80
2023-04-09T16:54:49.702Z,13.78
2023-04-09T16:57:20.769Z,13.75
2023-04-09T16:59:52.147Z,13.71
2023-04-09T17:02:24.885Z,13.66
2023-04-09T17:04:56.776Z,13.63
2023-04-09T17:07:28.787Z,13.59
2023-04-09T17:09:59.721Z,13.56
2023-04-09T17:12:31.416Z,13.51
2023-04-09T17:15:02.506Z,13.49
2023-04-09T17:17:44.719Z,13.45
2023-04-09T17:20:18.597Z,13.42
2023-04-09T17:22:54.819Z,13.41
2023-04-09T17:25:48.778Z,13.38
2023-04-09T17:28:20.234Z,13.37
2023-04-09T17:30:51.208Z,13.35
2023-04-09T17:33:23.597Z,13.31
2023-04-09T17:35:58.521Z,13.28
2023-04-09T17:38:56.766Z,13.25
2023-04-09T17:41:34.102Z,13.23
2023-04-09T17:44:05.206Z,13.20
2023-04-09T17:46:39.511Z,13.18
2023-04-09T17:49:12.305Z,13.16
2023-04-09T17:51:44.108Z,13.16
2023-04-09T17:54:15.317Z,13.13
2023-04-09T17:58:23.028Z,13.11
2023-04-09T18:00:23.587Z,13.08
2023-04-09T18:02:57.753Z,13.07
2023-04-09T18:05:29.918Z,13.03
2023-04-09T18:08:02.317Z,12.99
2023-04-09T18:10:44.730Z,12.97
2023-04-09T18:13:16.085Z,12.94
2023-04-09T18:15:47.233Z,12.92
2023-04-09T18:18:18.324Z,12.90
2023-04-09T18:20:52.465Z,12.89
2023-04-09T18:23:31.602Z,12.84
2023-04-09T18:26:11.049Z,12.81
2023-04-09T18:28:52.078Z,12.79
2023-04-09T18:31:30.712Z,12.74
2023-04-09T18:34:01.898Z,12.69
2023-04-09T18:36:32.956Z,12.64
2023-04-09T18:39:05.120Z,12.61
2023-04-09T18:41:50.053Z,12.53
2023-04-09T18:44:26.956Z,12.48
2023-04-09T18:47:22.308Z,12.46
2023-04-09T18:49:53.252Z,12.44
2023-04-09T18:52:25.492Z,12.42
2023-04-09T18:55:06.825Z,12.41
2023-04-09T18:57:37.819Z,12.40
2023-04-09T19:00:18.736Z,12.40
2023-04-09T19:02:50.080Z,12.39
2023-04-09T19:05:21.690Z,12.39
2023-04-09T19:07:52.800Z,12.39
2023-04-09T19:10:24.270Z,12.38
2023-04-09T19:12:56.178Z,12.38
2023-04-09T19:15:33.548Z,12.37
2023-04-09T19:18:04.820Z,12.38
2023-04-09T19:20:37.720Z,12.37
2023-04-09T19:23:08.830Z,12.35
2023-04-09T19:25:39.848Z,12.35
2023-04-09T19:28:19.958Z,12.35
2023-04-09T19:30:52.637Z,12.34
2023-04-09T19:33:26.482Z,12.35
2023-04-09T19:36:05.460Z,12.34
2023-04-09T19:38:36.565Z,12.33
2023-04-09T19:41:07.978Z,12.31
2023-04-09T19:43:39.458Z,12.29
2023-04-09T19:46:14.394Z,12.28
2023-04-09T19:48:45.695Z,12.26
2023-04-09T19:51:20.315Z,12.24
2023-04-09T19:53:55.518Z,12.21
2023-04-09T19:56:28.611Z,12.19
2023-04-09T19:58:59.734Z,12.18
2023-04-09T20:01:32.764Z,12.18
2023-04-09T20:04:05.490Z,12.18
2023-04-09T20:12:48.065Z,12.14
2023-04-09T20:15:20.296Z,12.12
2023-04-09T20:17:59.644Z,12.13
2023-04-09T20:20:31.813Z,12.11
2023-04-09T20:23:03.482Z,12.10
2023-04-09T20:25:36.878Z,12.10
2023-04-09T20:28:09.983Z,12.09
2023-04-09T20:30:41.413Z,12.09
2023-04-09T20:33:13.781Z,12.09
2023-04-09T20:35:45.042Z,12.10
2023-04-09T20:38:16.126Z,12.10
2023-04-09T20:40:47.222Z,12.09
2023-04-09T20:43:18.525Z,12.09
2023-04-09T20:45:51.371Z,12.08
2023-04-09T20:48:23.001Z,12.08
2023-04-09T20:50:54.040Z,12.08
2023-04-09T20:53:25.430Z,12.07
2023-04-09T20:55:57.333Z,12.06
2023-04-09T20:58:29.818Z,12.06
2023-04-09T21:01:07.849Z,12.05
2023-04-09T21:03:40.349Z,12.03
2023-04-09T21:06:11.747Z,12.02
2023-04-09T21:08:50.358Z,12.01
2023-04-09T21:11:21.919Z,11.98
2023-04-09T21:13:55.080Z,11.96
2023-04-09T21:16:36.005Z,11.91
2023-04-09T21:19:08.190Z,11.87
2023-04-09T21:21:39.938Z,11.83
2023-04-09T21:24:11.034Z,11.79
2023-04-09T21:26:51.642Z,11.73
2023-04-09T21:29:25.894Z,11.70
2023-04-09T21:32:07.477Z,11.66
2023-04-09T21:34:39.716Z,11.61
2023-04-09T21:37:11.357Z,11.57
2023-04-09T21:39:55.971Z,11.53
2023-04-09T21:42:30.191Z,11.48
2023-04-09T21:45:04.773Z,11.43
2023-04-09T21:47:36.240Z,11.40
2023-04-09T21:50:09.505Z,11.35
2023-04-09T21:52:44.160Z,11.32
2023-04-09T21:55:17.879Z,11.30
2023-04-09T21:57:49.440Z,11.28
2023-04-09T22:00:20.756Z,11.25
2023-04-09T22:02:52.839Z,11.22
2023-04-09T22:05:24.694Z,11.20
2023-04-09T22:07:56.072Z,11.16
2023-04-09T22:10:27.671Z,11.14
2023-04-09T22:12:58.618Z,11.11
2023-04-09T22:15:29.615Z,11.08
2023-04-09T22:18:00.626Z,11.05
2023-04-09T22:20:31.515Z,11.02
2023-04-09T22:23:02.621Z,10.98
2023-04-09T22:25:35.182Z,10.94
2023-04-09T22:28:07.558Z,10.90
2023-04-09T22:30:38.591Z,10.84
2023-04-09T22:33:09.674Z,10.80
2023-04-09T22:35:41.364Z,10.77
2023-04-09T22:38:12.433Z,10.73
2023-04-09T22:40:43.462Z,10.71
2023-04-09T22:43:14.615Z,10.66
2023-04-09T22:45:51.094Z,10.62
2023-04-09T22:48:23.182Z,10.56
2023-04-09T22:50:54.383Z,10.51
2023-04-09T22:53:25.480Z,10.48
2023-04-09T22:55:59.506Z,10.44
2023-04-09T22:58:30.500Z,10.41
2023-04-09T23:01:01.512Z,10.39
2023-04-09T23:03:32.949Z,10.37
2023-04-09T23:06:03.891Z,10.36
2023-04-09T23:08:34.904Z,10.34
2023-04-09T23:11:07.371Z,10.32
2023-04-09T23:13:38.259Z,10.29
2023-04-09T23:16:11.553Z,10.26
2023-04-09T23:18:43.218Z,10.24
2023-04-09T23:21:14.310Z,10.20
2023-04-09T23:23:45.901Z,10.17
2023-04-09T23:26:16.833Z,10.14
2023-04-09T23:28:47.724Z,10.12
2023-04-09T23:31:18.790Z,10.10
2023-04-09T23:33:49.705Z,10.11
2023-04-09T23:36:20.655Z,10.11
2023-04-09T23:38:51.609Z,10.10
2023-04-09T23:41:22.775Z,10.09
2023-04-09T23:43:53.761Z,10.09
2023-04-09T23:46:24.913Z,10.09
2023-04-09T23:48:55.854Z,10.09
2023-04-09T23:51:26.826Z,10.10
2023-04-09T23:53:57.740Z,10.10
2023-04-09T23:56:29.480Z,10.11
2023-04-09T23:59:00.377Z,10.11
